sensor_id;sensor_type;location;lat;lon;timestamp;P1;durP1;ratioP1;P2;durP2;ratioP2
70838;SDS011;58464;52.298;4.852;2023-07-13T00:01:28;26.63;;;4.47;;
70838;SDS011;58464;52.298;4.852;2023-07-13T00:03:54;23.75;;;4.90;;
70838;SDS011;58464;52.298;4.852;2023-07-13T00:06:19;22.42;;;4.50;;
70838;SDS011;58464;52.298;4.852;2023-07-13T00:08:45;22.25;;;5.32;;
70838;SDS011;58464;52.298;4.852;2023-07-13T00:11:16;17.20;;;3.88;;
70838;SDS011;58464;52.298;4.852;2023-07-13T00:13:42;22.30;;;4.32;;
70838;SDS011;58464;52.298;4.852;2023-07-13T00:16:08;23.80;;;4.85;;
70838;SDS011;58464;52.298;4.852;2023-07-13T00:18:33;21.27;;;4.47;;
70838;SDS011;58464;52.298;4.852;2023-07-13T00:20:59;28.73;;;4.88;;
70838;SDS011;58464;52.298;4.852;2023-07-13T00:23:37;18.55;;;4.68;;
70838;SDS011;58464;52.298;4.852;2023-07-13T00:26:03;22.85;;;5.40;;
70838;SDS011;58464;52.298;4.852;2023-07-13T00:28:29;18.48;;;4.20;;
70838;SDS011;58464;52.298;4.852;2023-07-13T00:30:54;24.73;;;4.90;;
70838;SDS011;58464;52.298;4.852;2023-07-13T00:33:20;20.52;;;4.82;;
70838;SDS011;58464;52.298;4.852;2023-07-13T00:35:45;26.15;;;4.47;;
70838;SDS011;58464;52.298;4.852;2023-07-13T00:38:11;26.38;;;4.43;;
70838;SDS011;58464;52.298;4.852;2023-07-13T00:40:36;31.17;;;5.88;;
70838;SDS011;58464;52.298;4.852;2023-07-13T00:43:01;21.95;;;3.72;;
70838;SDS011;58464;52.298;4.852;2023-07-13T00:47:53;24.48;;;4.85;;
70838;SDS011;58464;52.298;4.852;2023-07-13T00:50:19;18.77;;;3.72;;
70838;SDS011;58464;52.298;4.852;2023-07-13T00:52:47;21.85;;;3.80;;
70838;SDS011;58464;52.298;4.852;2023-07-13T00:55:13;20.10;;;3.42;;
70838;SDS011;58464;52.298;4.852;2023-07-13T00:57:39;16.75;;;3.35;;
70838;SDS011;58464;52.298;4.852;2023-07-13T01:00:05;16.48;;;2.90;;
70838;SDS011;58464;52.298;4.852;2023-07-13T01:02:35;17.25;;;3.42;;
70838;SDS011;58464;52.298;4.852;2023-07-13T01:05:01;8.27;;;2.17;;
70838;SDS011;58464;52.298;4.852;2023-07-13T01:07:27;20.33;;;3.03;;
70838;SDS011;58464;52.298;4.852;2023-07-13T01:09:52;10.98;;;2.35;;
70838;SDS011;58464;52.298;4.852;2023-07-13T01:12:17;10.27;;;2.10;;
70838;SDS011;58464;52.298;4.852;2023-07-13T01:14:43;16.83;;;2.88;;
70838;SDS011;58464;52.298;4.852;2023-07-13T01:17:09;12.88;;;1.52;;
70838;SDS011;58464;52.298;4.852;2023-07-13T01:19:36;9.25;;;2.67;;
70838;SDS011;58464;52.298;4.852;2023-07-13T01:22:03;12.50;;;2.13;;
70838;SDS011;58464;52.298;4.852;2023-07-13T01:24:28;6.65;;;1.75;;
70838;SDS011;58464;52.298;4.852;2023-07-13T01:26:54;24.60;;;2.67;;
70838;SDS011;58464;52.298;4.852;2023-07-13T01:29:19;6.43;;;1.45;;
70838;SDS011;58464;52.298;4.852;2023-07-13T01:31:45;9.75;;;1.95;;
70838;SDS011;58464;52.298;4.852;2023-07-13T01:34:10;7.30;;;2.30;;
70838;SDS011;58464;52.298;4.852;2023-07-13T01:36:35;10.00;;;2.38;;
70838;SDS011;58464;52.298;4.852;2023-07-13T01:39:01;11.23;;;2.13;;
70838;SDS011;58464;52.298;4.852;2023-07-13T01:41:27;5.85;;;1.77;;
70838;SDS011;58464;52.298;4.852;2023-07-13T01:43:52;6.00;;;1.95;;
70838;SDS011;58464;52.298;4.852;2023-07-13T01:46:17;8.82;;;1.80;;
70838;SDS011;58464;52.298;4.852;2023-07-13T01:48:43;8.10;;;1.67;;
70838;SDS011;58464;52.298;4.852;2023-07-13T01:51:08;13.32;;;1.70;;
70838;SDS011;58464;52.298;4.852;2023-07-13T01:53:33;9.65;;;1.90;;
70838;SDS011;58464;52.298;4.852;2023-07-13T01:55:59;7.75;;;1.80;;
70838;SDS011;58464;52.298;4.852;2023-07-13T01:58:24;16.75;;;2.40;;
70838;SDS011;58464;52.298;4.852;2023-07-13T02:00:49;10.03;;;2.57;;
70838;SDS011;58464;52.298;4.852;2023-07-13T02:03:16;17.35;;;2.35;;
70838;SDS011;58464;52.298;4.852;2023-07-13T02:05:43;6.35;;;1.52;;
70838;SDS011;58464;52.298;4.852;2023-07-13T02:08:08;10.48;;;1.98;;
70838;SDS011;58464;52.298;4.852;2023-07-13T02:10:34;7.73;;;2.57;;
70838;SDS011;58464;52.298;4.852;2023-07-13T02:12:59;10.68;;;1.83;;
70838;SDS011;58464;52.298;4.852;2023-07-13T02:15:24;10.13;;;1.55;;
70838;SDS011;58464;52.298;4.852;2023-07-13T02:17:49;13.80;;;2.55;;
70838;SDS011;58464;52.298;4.852;2023-07-13T02:20:15;15.77;;;2.13;;
70838;SDS011;58464;52.298;4.852;2023-07-13T02:22:40;9.18;;;1.45;;
70838;SDS011;58464;52.298;4.852;2023-07-13T02:25:05;3.72;;;1.02;;
70838;SDS011;58464;52.298;4.852;2023-07-13T02:27:32;11.50;;;1.52;;
70838;SDS011;58464;52.298;4.852;2023-07-13T02:29:57;9.00;;;1.75;;
70838;SDS011;58464;52.298;4.852;2023-07-13T02:32:22;11.30;;;1.55;;
70838;SDS011;58464;52.298;4.852;2023-07-13T02:34:50;10.90;;;1.98;;
70838;SDS011;58464;52.298;4.852;2023-07-13T02:37:15;14.23;;;1.85;;
70838;SDS011;58464;52.298;4.852;2023-07-13T02:39:40;14.68;;;1.90;;
70838;SDS011;58464;52.298;4.852;2023-07-13T02:42:06;7.57;;;1.83;;
70838;SDS011;58464;52.298;4.852;2023-07-13T02:44:31;8.02;;;1.98;;
70838;SDS011;58464;52.298;4.852;2023-07-13T02:46:57;9.00;;;1.98;;
70838;SDS011;58464;52.298;4.852;2023-07-13T02:49:22;7.50;;;1.80;;
70838;SDS011;58464;52.298;4.852;2023-07-13T02:51:48;8.70;;;1.83;;
70838;SDS011;58464;52.298;4.852;2023-07-13T02:54:13;11.70;;;2.13;;
70838;SDS011;58464;52.298;4.852;2023-07-13T02:56:39;6.88;;;1.35;;
70838;SDS011;58464;52.298;4.852;2023-07-13T02:59:04;9.23;;;1.67;;
70838;SDS011;58464;52.298;4.852;2023-07-13T03:01:29;8.75;;;1.75;;
70838;SDS011;58464;52.298;4.852;2023-07-13T03:03:55;11.40;;;1.67;;
70838;SDS011;58464;52.298;4.852;2023-07-13T03:06:21;5.68;;;1.48;;
70838;SDS011;58464;52.298;4.852;2023-07-13T03:08:46;12.98;;;1.83;;
70838;SDS011;58464;52.298;4.852;2023-07-13T03:11:14;14.13;;;2.45;;
70838;SDS011;58464;52.298;4.852;2023-07-13T03:13:40;12.30;;;2.20;;
70838;SDS011;58464;52.298;4.852;2023-07-13T03:16:06;10.63;;;1.70;;
70838;SDS011;58464;52.298;4.852;2023-07-13T03:18:32;12.57;;;2.35;;
70838;SDS011;58464;52.298;4.852;2023-07-13T03:20:57;8.55;;;1.80;;
70838;SDS011;58464;52.298;4.852;2023-07-13T03:23:23;7.53;;;1.65;;
70838;SDS011;58464;52.298;4.852;2023-07-13T03:25:50;7.40;;;2.13;;
70838;SDS011;58464;52.298;4.852;2023-07-13T03:28:15;4.20;;;1.00;;
70838;SDS011;58464;52.298;4.852;2023-07-13T03:30:42;11.27;;;1.93;;
70838;SDS011;58464;52.298;4.852;2023-07-13T03:33:07;5.65;;;1.00;;
70838;SDS011;58464;52.298;4.852;2023-07-13T03:35:33;13.35;;;1.70;;
70838;SDS011;58464;52.298;4.852;2023-07-13T03:37:59;6.70;;;1.52;;
70838;SDS011;58464;52.298;4.852;2023-07-13T03:40:24;13.25;;;1.77;;
70838;SDS011;58464;52.298;4.852;2023-07-13T03:42:51;4.85;;;1.38;;
70838;SDS011;58464;52.298;4.852;2023-07-13T03:45:18;7.40;;;2.03;;
70838;SDS011;58464;52.298;4.852;2023-07-13T03:47:43;8.13;;;1.48;;
70838;SDS011;58464;52.298;4.852;2023-07-13T03:50:09;6.07;;;1.60;;
70838;SDS011;58464;52.298;4.852;2023-07-13T03:52:34;6.22;;;1.60;;
70838;SDS011;58464;52.298;4.852;2023-07-13T03:54:59;5.68;;;1.70;;
70838;SDS011;58464;52.298;4.852;2023-07-13T03:57:25;14.02;;;1.77;;
70838;SDS011;58464;52.298;4.852;2023-07-13T03:59:50;16.20;;;1.73;;
70838;SDS011;58464;52.298;4.852;2023-07-13T04:02:15;7.75;;;1.88;;
70838;SDS011;58464;52.298;4.852;2023-07-13T04:04:42;8.45;;;1.70;;
70838;SDS011;58464;52.298;4.852;2023-07-13T04:07:07;9.88;;;2.03;;
70838;SDS011;58464;52.298;4.852;2023-07-13T04:09:33;12.80;;;1.92;;
70838;SDS011;58464;52.298;4.852;2023-07-13T04:11:58;7.32;;;1.80;;
70838;SDS011;58464;52.298;4.852;2023-07-13T04:14:24;12.93;;;1.75;;
70838;SDS011;58464;52.298;4.852;2023-07-13T04:16:49;12.40;;;2.08;;
70838;SDS011;58464;52.298;4.852;2023-07-13T04:19:15;9.25;;;1.95;;
70838;SDS011;58464;52.298;4.852;2023-07-13T04:21:41;9.25;;;1.90;;
70838;SDS011;58464;52.298;4.852;2023-07-13T04:24:06;10.30;;;1.70;;
70838;SDS011;58464;52.298;4.852;2023-07-13T04:26:33;5.78;;;1.70;;
70838;SDS011;58464;52.298;4.852;2023-07-13T04:29:01;10.50;;;1.90;;
70838;SDS011;58464;52.298;4.852;2023-07-13T04:31:29;8.50;;;1.85;;
70838;SDS011;58464;52.298;4.852;2023-07-13T04:33:54;6.78;;;1.75;;
70838;SDS011;58464;52.298;4.852;2023-07-13T04:36:19;13.02;;;2.30;;
70838;SDS011;58464;52.298;4.852;2023-07-13T04:38:44;8.35;;;1.70;;
70838;SDS011;58464;52.298;4.852;2023-07-13T04:41:10;11.13;;;2.00;;
70838;SDS011;58464;52.298;4.852;2023-07-13T04:43:36;10.00;;;2.50;;
70838;SDS011;58464;52.298;4.852;2023-07-13T04:46:06;11.27;;;2.45;;
70838;SDS011;58464;52.298;4.852;2023-07-13T04:48:31;11.55;;;2.35;;
70838;SDS011;58464;52.298;4.852;2023-07-13T04:50:57;19.38;;;2.42;;
70838;SDS011;58464;52.298;4.852;2023-07-13T04:53:23;10.70;;;2.40;;
70838;SDS011;58464;52.298;4.852;2023-07-13T04:55:49;17.15;;;2.95;;
70838;SDS011;58464;52.298;4.852;2023-07-13T04:58:14;9.20;;;2.30;;
70838;SDS011;58464;52.298;4.852;2023-07-13T05:00:39;15.98;;;3.35;;
70838;SDS011;58464;52.298;4.852;2023-07-13T05:03:05;9.00;;;2.92;;
70838;SDS011;58464;52.298;4.852;2023-07-13T05:05:31;11.05;;;2.63;;
70838;SDS011;58464;52.298;4.852;2023-07-13T05:07:57;12.63;;;2.67;;
70838;SDS011;58464;52.298;4.852;2023-07-13T05:10:22;16.42;;;2.78;;
70838;SDS011;58464;52.298;4.852;2023-07-13T05:12:48;9.65;;;1.92;;
70838;SDS011;58464;52.298;4.852;2023-07-13T05:15:14;13.32;;;2.67;;
70838;SDS011;58464;52.298;4.852;2023-07-13T05:17:40;14.05;;;3.00;;
70838;SDS011;58464;52.298;4.852;2023-07-13T05:20:05;16.00;;;2.80;;
70838;SDS011;58464;52.298;4.852;2023-07-13T05:22:31;19.10;;;3.00;;
70838;SDS011;58464;52.298;4.852;2023-07-13T05:24:56;11.53;;;2.67;;
70838;SDS011;58464;52.298;4.852;2023-07-13T05:27:22;14.38;;;3.15;;
70838;SDS011;58464;52.298;4.852;2023-07-13T05:29:48;16.80;;;2.92;;
70838;SDS011;58464;52.298;4.852;2023-07-13T05:32:14;13.38;;;3.13;;
70838;SDS011;58464;52.298;4.852;2023-07-13T05:34:39;9.43;;;2.60;;
70838;SDS011;58464;52.298;4.852;2023-07-13T05:37:04;15.43;;;2.72;;
70838;SDS011;58464;52.298;4.852;2023-07-13T05:39:30;12.03;;;2.50;;
70838;SDS011;58464;52.298;4.852;2023-07-13T05:41:57;15.82;;;3.30;;
70838;SDS011;58464;52.298;4.852;2023-07-13T05:44:22;11.98;;;2.80;;
70838;SDS011;58464;52.298;4.852;2023-07-13T05:46:49;12.82;;;3.17;;
70838;SDS011;58464;52.298;4.852;2023-07-13T05:49:14;13.73;;;2.78;;
70838;SDS011;58464;52.298;4.852;2023-07-13T05:51:40;11.27;;;2.33;;
70838;SDS011;58464;52.298;4.852;2023-07-13T05:54:06;9.38;;;2.30;;
70838;SDS011;58464;52.298;4.852;2023-07-13T05:56:31;19.88;;;2.95;;
70838;SDS011;58464;52.298;4.852;2023-07-13T05:58:56;29.92;;;3.60;;
70838;SDS011;58464;52.298;4.852;2023-07-13T06:01:22;19.33;;;2.80;;
70838;SDS011;58464;52.298;4.852;2023-07-13T06:03:48;19.33;;;3.53;;
70838;SDS011;58464;52.298;4.852;2023-07-13T06:06:14;20.23;;;4.45;;
70838;SDS011;58464;52.298;4.852;2023-07-13T06:08:40;11.15;;;2.67;;
70838;SDS011;58464;52.298;4.852;2023-07-13T06:11:06;8.70;;;2.38;;
70838;SDS011;58464;52.298;4.852;2023-07-13T06:13:32;12.80;;;3.03;;
70838;SDS011;58464;52.298;4.852;2023-07-13T06:15:58;7.07;;;1.98;;
70838;SDS011;58464;52.298;4.852;2023-07-13T06:18:23;10.48;;;2.17;;
70838;SDS011;58464;52.298;4.852;2023-07-13T06:20:49;32.05;;;3.08;;
70838;SDS011;58464;52.298;4.852;2023-07-13T06:23:17;23.25;;;3.25;;
70838;SDS011;58464;52.298;4.852;2023-07-13T06:25:43;10.30;;;2.25;;
70838;SDS011;58464;52.298;4.852;2023-07-13T06:28:08;8.38;;;2.13;;
70838;SDS011;58464;52.298;4.852;2023-07-13T06:30:34;12.50;;;2.08;;
70838;SDS011;58464;52.298;4.852;2023-07-13T06:32:59;19.83;;;2.72;;
70838;SDS011;58464;52.298;4.852;2023-07-13T06:35:24;7.77;;;2.43;;
70838;SDS011;58464;52.298;4.852;2023-07-13T06:37:50;7.93;;;1.73;;
70838;SDS011;58464;52.298;4.852;2023-07-13T06:40:15;17.13;;;1.98;;
70838;SDS011;58464;52.298;4.852;2023-07-13T06:42:40;11.73;;;2.35;;
70838;SDS011;58464;52.298;4.852;2023-07-13T06:45:06;18.90;;;3.47;;
70838;SDS011;58464;52.298;4.852;2023-07-13T06:47:31;12.10;;;2.40;;
70838;SDS011;58464;52.298;4.852;2023-07-13T06:49:57;8.55;;;2.28;;
70838;SDS011;58464;52.298;4.852;2023-07-13T06:52:22;19.20;;;2.90;;
70838;SDS011;58464;52.298;4.852;2023-07-13T06:54:47;8.87;;;1.90;;
70838;SDS011;58464;52.298;4.852;2023-07-13T06:57:12;8.93;;;2.00;;
70838;SDS011;58464;52.298;4.852;2023-07-13T06:59:38;17.83;;;1.83;;
70838;SDS011;58464;52.298;4.852;2023-07-13T07:02:03;17.50;;;2.58;;
70838;SDS011;58464;52.298;4.852;2023-07-13T07:04:29;10.65;;;2.72;;
70838;SDS011;58464;52.298;4.852;2023-07-13T07:06:54;10.32;;;2.28;;
70838;SDS011;58464;52.298;4.852;2023-07-13T07:09:20;13.18;;;2.15;;
70838;SDS011;58464;52.298;4.852;2023-07-13T07:11:45;14.30;;;2.40;;
70838;SDS011;58464;52.298;4.852;2023-07-13T07:14:10;5.10;;;1.67;;
70838;SDS011;58464;52.298;4.852;2023-07-13T07:16:36;16.30;;;2.17;;
70838;SDS011;58464;52.298;4.852;2023-07-13T07:19:02;10.07;;;2.58;;
70838;SDS011;58464;52.298;4.852;2023-07-13T07:21:27;11.75;;;2.30;;
70838;SDS011;58464;52.298;4.852;2023-07-13T07:23:53;10.82;;;2.20;;
70838;SDS011;58464;52.298;4.852;2023-07-13T07:26:18;7.28;;;1.80;;
70838;SDS011;58464;52.298;4.852;2023-07-13T07:28:43;5.80;;;1.95;;
70838;SDS011;58464;52.298;4.852;2023-07-13T07:31:10;10.00;;;1.87;;
70838;SDS011;58464;52.298;4.852;2023-07-13T07:33:35;9.07;;;1.90;;
70838;SDS011;58464;52.298;4.852;2023-07-13T07:36:01;9.55;;;2.20;;
70838;SDS011;58464;52.298;4.852;2023-07-13T07:38:26;5.85;;;2.08;;
70838;SDS011;58464;52.298;4.852;2023-07-13T07:40:52;11.40;;;2.22;;
70838;SDS011;58464;52.298;4.852;2023-07-13T07:43:17;10.93;;;2.40;;
70838;SDS011;58464;52.298;4.852;2023-07-13T07:45:43;9.77;;;2.28;;
70838;SDS011;58464;52.298;4.852;2023-07-13T07:48:10;4.18;;;1.67;;
70838;SDS011;58464;52.298;4.852;2023-07-13T07:50:36;10.60;;;2.17;;
70838;SDS011;58464;52.298;4.852;2023-07-13T07:53:01;6.05;;;1.55;;
70838;SDS011;58464;52.298;4.852;2023-07-13T07:55:27;14.25;;;2.63;;
70838;SDS011;58464;52.298;4.852;2023-07-13T07:57:52;7.18;;;2.50;;
70838;SDS011;58464;52.298;4.852;2023-07-13T08:00:18;15.15;;;2.55;;
70838;SDS011;58464;52.298;4.852;2023-07-13T08:02:43;10.30;;;2.25;;
70838;SDS011;58464;52.298;4.852;2023-07-13T08:05:09;12.07;;;2.42;;
70838;SDS011;58464;52.298;4.852;2023-07-13T08:07:34;6.43;;;1.75;;
70838;SDS011;58464;52.298;4.852;2023-07-13T08:10:00;10.73;;;1.75;;
70838;SDS011;58464;52.298;4.852;2023-07-13T08:12:25;11.63;;;1.77;;
70838;SDS011;58464;52.298;4.852;2023-07-13T08:14:51;8.88;;;1.48;;
70838;SDS011;58464;52.298;4.852;2023-07-13T08:17:19;9.80;;;1.70;;
70838;SDS011;58464;52.298;4.852;2023-07-13T08:19:46;9.20;;;1.88;;
70838;SDS011;58464;52.298;4.852;2023-07-13T08:22:11;6.47;;;1.55;;
70838;SDS011;58464;52.298;4.852;2023-07-13T08:24:38;7.20;;;1.50;;
70838;SDS011;58464;52.298;4.852;2023-07-13T08:27:03;8.75;;;1.80;;
70838;SDS011;58464;52.298;4.852;2023-07-13T08:29:29;7.13;;;2.42;;
70838;SDS011;58464;52.298;4.852;2023-07-13T08:31:57;8.40;;;2.22;;
70838;SDS011;58464;52.298;4.852;2023-07-13T08:34:22;12.82;;;2.20;;
70838;SDS011;58464;52.298;4.852;2023-07-13T08:36:47;5.50;;;1.52;;
70838;SDS011;58464;52.298;4.852;2023-07-13T08:39:13;9.15;;;2.35;;
70838;SDS011;58464;52.298;4.852;2023-07-13T08:41:38;6.43;;;2.10;;
70838;SDS011;58464;52.298;4.852;2023-07-13T08:44:04;7.18;;;2.00;;
70838;SDS011;58464;52.298;4.852;2023-07-13T08:46:38;7.40;;;1.95;;
70838;SDS011;58464;52.298;4.852;2023-07-13T08:49:38;5.35;;;1.90;;
70838;SDS011;58464;52.298;4.852;2023-07-13T08:52:02;10.32;;;1.77;;
70838;SDS011;58464;52.298;4.852;2023-07-13T08:56:58;7.63;;;1.85;;
70838;SDS011;58464;52.298;4.852;2023-07-13T08:59:25;5.28;;;2.00;;
70838;SDS011;58464;52.298;4.852;2023-07-13T09:01:55;5.70;;;1.88;;
70838;SDS011;58464;52.298;4.852;2023-07-13T09:04:44;9.63;;;2.00;;
70838;SDS011;58464;52.298;4.852;2023-07-13T09:14:51;9.90;;;2.13;;
70838;SDS011;58464;52.298;4.852;2023-07-13T09:17:18;2.90;;;1.20;;
70838;SDS011;58464;52.298;4.852;2023-07-13T09:19:44;6.20;;;1.88;;
70838;SDS011;58464;52.298;4.852;2023-07-13T09:22:19;10.00;;;1.88;;
70838;SDS011;58464;52.298;4.852;2023-07-13T09:25:05;5.55;;;2.03;;
70838;SDS011;58464;52.298;4.852;2023-07-13T09:27:36;6.18;;;1.88;;
70838;SDS011;58464;52.298;4.852;2023-07-13T09:32:41;3.75;;;1.20;;
70838;SDS011;58464;52.298;4.852;2023-07-13T09:35:15;7.35;;;2.28;;
70838;SDS011;58464;52.298;4.852;2023-07-13T09:37:42;13.43;;;1.67;;
70838;SDS011;58464;52.298;4.852;2023-07-13T09:40:11;6.57;;;1.80;;
70838;SDS011;58464;52.298;4.852;2023-07-13T09:42:38;8.82;;;2.42;;
70838;SDS011;58464;52.298;4.852;2023-07-13T09:45:03;7.97;;;2.03;;
70838;SDS011;58464;52.298;4.852;2023-07-13T09:47:32;8.68;;;1.88;;
70838;SDS011;58464;52.298;4.852;2023-07-13T09:50:02;6.18;;;1.77;;
70838;SDS011;58464;52.298;4.852;2023-07-13T09:52:39;8.50;;;1.92;;
70838;SDS011;58464;52.298;4.852;2023-07-13T09:57:53;8.52;;;2.22;;
70838;SDS011;58464;52.298;4.852;2023-07-13T10:00:23;8.07;;;2.40;;
70838;SDS011;58464;52.298;4.852;2023-07-13T10:03:35;8.75;;;2.03;;
70838;SDS011;58464;52.298;4.852;2023-07-13T10:05:39;6.55;;;1.63;;
70838;SDS011;58464;52.298;4.852;2023-07-13T10:08:05;11.25;;;1.70;;
70838;SDS011;58464;52.298;4.852;2023-07-13T10:10:32;10.38;;;1.90;;
70838;SDS011;58464;52.298;4.852;2023-07-13T10:12:58;8.40;;;1.80;;
70838;SDS011;58464;52.298;4.852;2023-07-13T10:15:24;5.57;;;1.70;;
70838;SDS011;58464;52.298;4.852;2023-07-13T10:17:51;11.10;;;1.80;;
70838;SDS011;58464;52.298;4.852;2023-07-13T10:20:16;8.25;;;1.80;;
70838;SDS011;58464;52.298;4.852;2023-07-13T10:25:13;9.82;;;2.05;;
70838;SDS011;58464;52.298;4.852;2023-07-13T10:27:41;5.43;;;1.50;;
70838;SDS011;58464;52.298;4.852;2023-07-13T10:30:28;6.13;;;1.85;;
70838;SDS011;58464;52.298;4.852;2023-07-13T10:32:53;5.50;;;1.92;;
70838;SDS011;58464;52.298;4.852;2023-07-13T10:35:19;4.70;;;1.40;;
70838;SDS011;58464;52.298;4.852;2023-07-13T10:38:02;8.90;;;1.92;;
70838;SDS011;58464;52.298;4.852;2023-07-13T10:41:14;7.95;;;1.90;;
70838;SDS011;58464;52.298;4.852;2023-07-13T10:43:20;5.05;;;2.20;;
70838;SDS011;58464;52.298;4.852;2023-07-13T10:45:47;5.63;;;2.00;;
70838;SDS011;58464;52.298;4.852;2023-07-13T10:48:16;8.32;;;1.92;;
70838;SDS011;58464;52.298;4.852;2023-07-13T10:50:43;13.27;;;2.17;;
70838;SDS011;58464;52.298;4.852;2023-07-13T10:53:20;8.15;;;1.75;;
70838;SDS011;58464;52.298;4.852;2023-07-13T10:58:21;8.55;;;2.35;;
70838;SDS011;58464;52.298;4.852;2023-07-13T11:00:49;4.45;;;1.50;;
70838;SDS011;58464;52.298;4.852;2023-07-13T11:03:17;9.05;;;1.92;;
70838;SDS011;58464;52.298;4.852;2023-07-13T11:05:43;4.38;;;1.70;;
70838;SDS011;58464;52.298;4.852;2023-07-13T11:10:54;6.70;;;1.48;;
70838;SDS011;58464;52.298;4.852;2023-07-13T11:13:36;4.75;;;1.48;;
70838;SDS011;58464;52.298;4.852;2023-07-13T11:16:12;9.77;;;1.52;;
70838;SDS011;58464;52.298;4.852;2023-07-13T11:18:38;14.23;;;1.95;;
70838;SDS011;58464;52.298;4.852;2023-07-13T11:21:13;6.53;;;1.80;;
70838;SDS011;58464;52.298;4.852;2023-07-13T11:23:41;9.25;;;1.90;;
70838;SDS011;58464;52.298;4.852;2023-07-13T11:26:36;7.13;;;2.10;;
70838;SDS011;58464;52.298;4.852;2023-07-13T11:28:52;7.53;;;1.60;;
70838;SDS011;58464;52.298;4.852;2023-07-13T11:31:17;6.15;;;1.65;;
70838;SDS011;58464;52.298;4.852;2023-07-13T11:33:52;8.52;;;2.13;;
70838;SDS011;58464;52.298;4.852;2023-07-13T11:36:19;7.65;;;1.50;;
70838;SDS011;58464;52.298;4.852;2023-07-13T11:39:11;7.40;;;2.25;;
70838;SDS011;58464;52.298;4.852;2023-07-13T11:41:43;5.20;;;1.55;;
70838;SDS011;58464;52.298;4.852;2023-07-13T11:46:37;5.57;;;1.63;;
70838;SDS011;58464;52.298;4.852;2023-07-13T11:49:04;4.00;;;1.10;;
70838;SDS011;58464;52.298;4.852;2023-07-13T11:51:32;5.43;;;1.85;;
70838;SDS011;58464;52.298;4.852;2023-07-13T11:53:59;6.72;;;1.77;;
70838;SDS011;58464;52.298;4.852;2023-07-13T11:56:27;3.95;;;1.63;;
70838;SDS011;58464;52.298;4.852;2023-07-13T11:58:52;4.65;;;1.63;;
70838;SDS011;58464;52.298;4.852;2023-07-13T12:01:28;6.55;;;1.38;;
70838;SDS011;58464;52.298;4.852;2023-07-13T12:03:57;4.82;;;1.65;;
70838;SDS011;58464;52.298;4.852;2023-07-13T12:06:33;6.70;;;1.45;;
70838;SDS011;58464;52.298;4.852;2023-07-13T12:09:02;7.80;;;2.08;;
70838;SDS011;58464;52.298;4.852;2023-07-13T12:11:29;7.47;;;1.98;;
70838;SDS011;58464;52.298;4.852;2023-07-13T12:13:55;3.85;;;1.67;;
70838;SDS011;58464;52.298;4.852;2023-07-13T12:16:33;5.25;;;1.60;;
70838;SDS011;58464;52.298;4.852;2023-07-13T12:18:58;6.55;;;2.38;;
70838;SDS011;58464;52.298;4.852;2023-07-13T12:21:31;17.38;;;1.98;;
70838;SDS011;58464;52.298;4.852;2023-07-13T12:23:57;5.97;;;2.03;;
70838;SDS011;58464;52.298;4.852;2023-07-13T12:26:23;6.20;;;2.00;;
70838;SDS011;58464;52.298;4.852;2023-07-13T12:28:51;6.40;;;2.33;;
70838;SDS011;58464;52.298;4.852;2023-07-13T12:32:02;6.15;;;1.80;;
70838;SDS011;58464;52.298;4.852;2023-07-13T12:34:13;5.20;;;1.70;;
70838;SDS011;58464;52.298;4.852;2023-07-13T12:37:12;4.32;;;1.52;;
70838;SDS011;58464;52.298;4.852;2023-07-13T12:42:09;4.72;;;1.65;;
70838;SDS011;58464;52.298;4.852;2023-07-13T12:44:40;5.93;;;1.67;;
70838;SDS011;58464;52.298;4.852;2023-07-13T12:47:06;9.27;;;1.98;;
70838;SDS011;58464;52.298;4.852;2023-07-13T12:49:48;4.45;;;1.90;;
70838;SDS011;58464;52.298;4.852;2023-07-13T12:52:17;10.25;;;2.58;;
70838;SDS011;58464;52.298;4.852;2023-07-13T12:54:52;14.07;;;1.85;;
70838;SDS011;58464;52.298;4.852;2023-07-13T12:57:18;4.63;;;2.00;;
70838;SDS011;58464;52.298;4.852;2023-07-13T12:59:43;11.27;;;2.35;;
70838;SDS011;58464;52.298;4.852;2023-07-13T13:02:43;7.38;;;2.20;;
70838;SDS011;58464;52.298;4.852;2023-07-13T13:05:02;4.47;;;1.67;;
70838;SDS011;58464;52.298;4.852;2023-07-13T13:07:30;6.47;;;1.70;;
70838;SDS011;58464;52.298;4.852;2023-07-13T13:09:55;10.35;;;3.13;;
70838;SDS011;58464;52.298;4.852;2023-07-13T13:12:21;8.48;;;2.70;;
70838;SDS011;58464;52.298;4.852;2023-07-13T13:14:47;9.73;;;2.08;;
70838;SDS011;58464;52.298;4.852;2023-07-13T13:17:17;4.57;;;1.67;;
70838;SDS011;58464;52.298;4.852;2023-07-13T13:19:45;8.60;;;2.30;;
70838;SDS011;58464;52.298;4.852;2023-07-13T13:22:10;11.95;;;2.28;;
70838;SDS011;58464;52.298;4.852;2023-07-13T13:24:36;7.78;;;2.20;;
70838;SDS011;58464;52.298;4.852;2023-07-13T13:27:01;6.47;;;2.00;;
70838;SDS011;58464;52.298;4.852;2023-07-13T13:29:27;7.03;;;2.13;;
70838;SDS011;58464;52.298;4.852;2023-07-13T13:31:53;10.13;;;2.20;;
70838;SDS011;58464;52.298;4.852;2023-07-13T13:34:18;11.65;;;3.28;;
70838;SDS011;58464;52.298;4.852;2023-07-13T13:36:44;6.25;;;1.83;;
70838;SDS011;58464;52.298;4.852;2023-07-13T13:39:19;6.55;;;1.88;;
70838;SDS011;58464;52.298;4.852;2023-07-13T13:41:48;7.80;;;2.38;;
70838;SDS011;58464;52.298;4.852;2023-07-13T13:44:14;6.55;;;1.92;;
70838;SDS011;58464;52.298;4.852;2023-07-13T13:46:40;7.97;;;1.85;;
70838;SDS011;58464;52.298;4.852;2023-07-13T13:49:10;6.47;;;2.20;;
70838;SDS011;58464;52.298;4.852;2023-07-13T13:51:39;5.75;;;2.40;;
70838;SDS011;58464;52.298;4.852;2023-07-13T13:54:08;9.60;;;2.47;;
70838;SDS011;58464;52.298;4.852;2023-07-13T13:56:35;5.40;;;1.73;;
70838;SDS011;58464;52.298;4.852;2023-07-13T13:59:00;9.37;;;1.57;;
70838;SDS011;58464;52.298;4.852;2023-07-13T14:01:25;4.20;;;1.40;;
70838;SDS011;58464;52.298;4.852;2023-07-13T14:03:51;3.13;;;1.38;;
70838;SDS011;58464;52.298;4.852;2023-07-13T14:06:17;10.32;;;1.80;;
70838;SDS011;58464;52.298;4.852;2023-07-13T14:08:43;5.45;;;1.48;;
70838;SDS011;58464;52.298;4.852;2023-07-13T14:11:14;5.72;;;2.03;;
70838;SDS011;58464;52.298;4.852;2023-07-13T14:13:41;5.55;;;1.75;;
70838;SDS011;58464;52.298;4.852;2023-07-13T14:16:11;5.28;;;1.98;;
70838;SDS011;58464;52.298;4.852;2023-07-13T14:18:38;3.55;;;1.75;;
70838;SDS011;58464;52.298;4.852;2023-07-13T14:21:08;3.40;;;1.35;;
70838;SDS011;58464;52.298;4.852;2023-07-13T14:23:35;4.68;;;1.30;;
70838;SDS011;58464;52.298;4.852;2023-07-13T14:26:01;7.23;;;3.10;;
70838;SDS011;58464;52.298;4.852;2023-07-13T14:28:27;4.97;;;1.65;;
70838;SDS011;58464;52.298;4.852;2023-07-13T14:30:54;2.60;;;1.10;;
70838;SDS011;58464;52.298;4.852;2023-07-13T14:33:19;5.18;;;1.63;;
70838;SDS011;58464;52.298;4.852;2023-07-13T14:35:45;7.50;;;1.95;;
70838;SDS011;58464;52.298;4.852;2023-07-13T14:38:11;2.22;;;1.20;;
70838;SDS011;58464;52.298;4.852;2023-07-13T14:40:37;3.65;;;1.58;;
70838;SDS011;58464;52.298;4.852;2023-07-13T14:43:03;4.13;;;1.52;;
70838;SDS011;58464;52.298;4.852;2023-07-13T14:45:30;4.32;;;1.70;;
70838;SDS011;58464;52.298;4.852;2023-07-13T14:47:56;4.88;;;1.40;;
70838;SDS011;58464;52.298;4.852;2023-07-13T14:50:28;5.28;;;1.45;;
70838;SDS011;58464;52.298;4.852;2023-07-13T14:52:53;4.22;;;1.67;;
70838;SDS011;58464;52.298;4.852;2023-07-13T14:55:19;2.13;;;1.40;;
70838;SDS011;58464;52.298;4.852;2023-07-13T14:57:45;5.63;;;1.50;;
70838;SDS011;58464;52.298;4.852;2023-07-13T15:02:40;3.75;;;1.58;;
70838;SDS011;58464;52.298;4.852;2023-07-13T15:05:17;3.17;;;1.60;;
70838;SDS011;58464;52.298;4.852;2023-07-13T15:07:44;2.25;;;1.42;;
70838;SDS011;58464;52.298;4.852;2023-07-13T15:10:13;6.15;;;1.73;;
70838;SDS011;58464;52.298;4.852;2023-07-13T15:12:39;7.40;;;2.30;;
70838;SDS011;58464;52.298;4.852;2023-07-13T15:15:04;7.70;;;1.73;;
70838;SDS011;58464;52.298;4.852;2023-07-13T15:17:37;7.13;;;1.73;;